Home > Products > Valid Products > TAF

000
FTUS41 KBGM 281100
TAFAVP
TAF
KAVP 281126Z 2812/2912 22005KT P6SM -RA OVC040
      TEMPO 2812/2814 OVC025
     FM281400 31010G20KT P6SM OVC025
     FM281900 33008KT P6SM SCT025 BKN045=



000
FTUS41 KBGM 281100
TAFELM
TAF
KELM 281126Z 2812/2912 31012G22KT P6SM SCT015 OVC025
     FM282000 32008KT P6SM SCT025 BKN035=



000
FTUS41 KBGM 281100
TAFBGM
TAF
KBGM 281126Z 2812/2912 32012G22KT P6SM SCT006 OVC015
      TEMPO 2812/2815 4SM -SHRA BR OVC006
     FM281800 33010G20KT P6SM SCT015 OVC025
     FM282100 33008KT P6SM OVC025=



000
FTUS41 KBGM 281100
TAFSYR
TAF
KSYR 281126Z 2812/2912 30012G22KT P6SM OVC025
      TEMPO 2812/2815 -SHRA OVC012
     FM282100 29010KT P6SM OVC025=



000
FTUS41 KBGM 281100
TAFITH
TAF
KITH 281126Z 2812/2912 32012G22KT P6SM SCT006 OVC015
      TEMPO 2812/2815 4SM -SHRA BR OVC006
     FM281800 33010G20KT P6SM SCT015 OVC025
     FM282100 33008KT P6SM OVC025=



000
FTUS41 KBGM 280800 AAA
TAFSYR
TAF AMD
KSYR 280848Z 2809/2906 24012KT P6SM -RA SCT025 OVC040
      TEMPO 2809/2811 5SM -RA BR OVC025
     FM281100 30012G22KT P6SM -SHRA SCT012 OVC025
     FM281800 30010KT P6SM OVC025=



000
FTUS41 KBGM 280800 AAA
TAFBGM
TAF AMD
KBGM 280848Z 2809/2906 19010KT P6SM -RA SCT015 OVC035 WS020/23040KT
      TEMPO 2809/2812 3SM -RA BR OVC015
     FM281200 32012G22KT P6SM -SHRA SCT008 OVC012
      TEMPO 2812/2815 OVC008
     FM281800 33010KT P6SM SCT015 OVC025=



000
FTUS41 KBGM 280800 AAA
TAFAVP
TAF AMD
KAVP 280848Z 2809/2906 22005KT P6SM -RA OVC040
      TEMPO 2812/2815 OVC025
     FM281500 31010G20KT P6SM OVC025
     FM282000 33008KT P6SM SCT025 BKN045=



000
FTUS41 KBGM 280800 AAA
TAFITH
TAF AMD
KITH 280848Z 2809/2906 24005KT P6SM -RA SCT015 OVC035
      TEMPO 2809/2811 3SM -RA BR OVC015
     FM281100 32012G22KT P6SM -SHRA OVC012
      TEMPO 2811/2815 OVC008
     FM281500 33010G20KT P6SM OVC015
     FM281800 33010KT P6SM SCT015 OVC025=



000
FTUS41 KBGM 280800 AAA
TAFELM
TAF AMD
KELM 280848Z 2809/2906 23005KT P6SM -RA SCT025 OVC045 WS020/24045KT
     FM281100 31012G22KT P6SM SCT015 OVC025
     FM281800 32008KT P6SM OVC025
     FM290300 32008KT P6SM SCT025 BKN035=



000
FTUS41 KBGM 280500 RRA
TAFELM
TAF
KELM 280543Z 2806/2906 23005KT P6SM -SHRA SCT025 OVC045
      WS020/24045KT
     FM281100 31012G22KT P6SM SCT015 OVC025
     FM281800 32008KT P6SM OVC025
     FM290300 32008KT P6SM SCT025 BKN035=



000
FTUS41 KBGM 280500 RRA
TAFSYR
TAF
KSYR 280543Z 2806/2906 21010KT P6SM -SHRA SCT025 OVC045
      WS020/24045KT
     FM280800 24012KT P6SM -RA SCT012 OVC025
      TEMPO 2808/2811 3SM -RA BR OVC012
     FM281100 30012G22KT P6SM -SHRA SCT015 OVC025
     FM281800 30010KT P6SM OVC025=



000
FTUS41 KBGM 280500 RRA
TAFAVP
TAF
KAVP 280543Z 2806/2906 22005KT P6SM BKN050
      TEMPO 2812/2815 -SHRA OVC025
     FM281500 31010G20KT P6SM OVC025
     FM282000 33008KT P6SM SCT025 BKN045=



000
FTUS41 KBGM 280500 RRA
TAFBGM
TAF
KBGM 280543Z 2806/2906 19010KT P6SM -SHRA SCT025 OVC035
      WS020/23040KT
     FM281000 22008KT P6SM -RA SCT012 OVC025
      TEMPO 2810/2812 3SM -RA BR OVC008
     FM281200 32012G22KT P6SM -SHRA SCT008 OVC015
     FM281800 33010KT P6SM SCT015 OVC025=



000
FTUS41 KBGM 280500 RRA
TAFITH
TAF
KITH 280543Z 2806/2906 16010KT P6SM -SHRA SCT025 OVC035
      WS020/23040KT
     FM280900 23005KT P6SM -RA SCT012 OVC025
      TEMPO 2809/2811 3SM -RA BR OVC012
     FM281100 32012G22KT P6SM -SHRA OVC008
     FM281500 33010G20KT P6SM OVC015
     FM281800 33010KT P6SM SCT015 OVC025=



000
FTUS41 KBGM 272300 CCA
TAFSYR
TAF COR
KSYR 272340Z 2800/2824 19008KT P6SM BKN045
     FM280500 25012KT P6SM -SHRA OVC035
      TEMPO 2807/2810 5SM -SHRA OVC020
     FM281000 27012KT P6SM -SHRA OVC018
     FM281400 29012G18KT P6SM BKN025
     FM281900 30011KT P6SM SCT025 BKN180=



000
FTUS41 KBGM 272300
TAFSYR
TAF
KSYR 272338Z 2800/2824 19008KT P6SM BKN045
     FM280600 25012KT P6SM -SHRA OVC035
      TEMPO 2807/2810 5SM -SHRA OVC020
     FM281000 27012KT P6SM -SHRA OVC018
     FM281400 29012G18KT P6SM BKN025
     FM281900 30011KT P6SM SCT025 BKN180=



000
FTUS41 KBGM 272300
TAFELM
TAF
KELM 272338Z 2800/2824 VRB03KT P6SM SCT050
     FM280300 23005KT P6SM SCT030 OVC040
      TEMPO 2807/2811 -SHRA OVC030
     FM281100 30008G16KT P6SM BKN025
     FM281800 31010KT P6SM SCT025 BKN150=



000
FTUS41 KBGM 272300
TAFBGM
TAF
KBGM 272338Z 2800/2824 19009KT P6SM SCT040
     FM280700 23008KT P6SM SCT018 OVC025
      TEMPO 2808/2812 5SM -SHRA OVC018
     FM281200 28011KT P6SM -SHRA OVC015
     FM281600 31008G16KT P6SM BKN020
     FM282000 32010KT P6SM SCT020 BKN150=



000
FTUS41 KBGM 272300
TAFITH
TAF
KITH 272338Z 2800/2824 18010KT P6SM SCT040
     FM280600 22007KT P6SM OVC025
      TEMPO 2807/2811 5SM -SHRA OVC018
     FM281100 28011KT P6SM -SHRA OVC015
     FM281500 31008G16KT P6SM BKN020
     FM282000 32010KT P6SM SCT020 BKN150=



000
FTUS41 KBGM 272300
TAFAVP
TAF
KAVP 272338Z 2800/2824 22004KT P6SM SCT050
     FM280800 26005KT P6SM SCT025 OVC040
      TEMPO 2811/2815 -SHRA OVC025
     FM281500 29008G16KT P6SM -SHRA OVC020
     FM281900 33008KT P6SM SCT025 BKN120=



000
FTUS41 KBGM 271700
TAFITH
TAF
KITH 271729Z 2718/2818 18007KT P6SM SCT050
     FM280300 19010KT P6SM -SHRA OVC025
     FM280900 30010G20KT P6SM SCT025 BKN035=



000
FTUS41 KBGM 271700
TAFSYR
TAF
KSYR 271729Z 2718/2818 19008KT P6SM BKN045
     FM280200 21012KT P6SM -SHRA SCT025 OVC035
     FM280900 28010G20KT P6SM BKN040=



000
FTUS41 KBGM 271700
TAFBGM
TAF
KBGM 271729Z 2718/2818 20010KT P6SM SCT040
     FM280300 21010KT P6SM -SHRA OVC025
     FM281000 28011G22KT P6SM SCT025 BKN035=



000
FTUS41 KBGM 271700
TAFELM
TAF
KELM 271729Z 2718/2818 VRB03KT P6SM SCT050
     FM280300 23005KT P6SM -SHRA SCT025 OVC035
     FM280900 30008G19KT P6SM BKN040=



000
FTUS41 KBGM 271700
TAFAVP
TAF
KAVP 271729Z 2718/2818 22008KT P6SM SCT050
     FM280400 23005KT P6SM -SHRA SCT025 OVC040
     FM281200 29009G20KT P6SM BKN045=



000
FTUS41 KBGM 271500 AAA
TAFITH
TAF AMD
KITH 271559Z 2716/2812 18007KT P6SM SCT050
     FM280300 19010KT P6SM -SHRA OVC025
     FM280900 28010G20KT P6SM SCT025 BKN035=



000
FTUS41 KBGM 271500 AAA
TAFELM
TAF AMD
KELM 271558Z 2716/2812 VRB03KT P6SM SCT050
     FM280300 23005KT P6SM -SHRA SCT025 OVC035
     FM280900 28010G20KT P6SM BKN040=



000
FTUS41 KBGM 271100
TAFELM
TAF
KELM 271121Z 2712/2812 VRB03KT P6SM SCT035 BKN200
      TEMPO 2712/2715 BKN035
     FM271500 21008KT P6SM BKN050
     FM280300 23005KT P6SM -SHRA SCT025 OVC035
     FM280900 28010G20KT P6SM BKN040=



000
FTUS41 KBGM 271100
TAFBGM
TAF
KBGM 271121Z 2712/2812 20005KT P6SM OVC025
      TEMPO 2712/2715 SCT025 BKN035
     FM271500 20010KT P6SM BKN045
     FM280300 21010KT P6SM -SHRA OVC025
     FM280900 28010G20KT P6SM SCT025 BKN035=



000
FTUS41 KBGM 271100
TAFSYR
TAF
KSYR 271121Z 2712/2812 VRB03KT P6SM OVC040
      TEMPO 2712/2716 OVC025
     FM271600 19008KT P6SM BKN045
     FM280200 21012KT P6SM -SHRA SCT025 OVC035
     FM280900 28010G20KT P6SM BKN040=



000
FTUS41 KBGM 271100
TAFAVP
TAF
KAVP 271121Z 2712/2812 VRB03KT P6SM BKN200
     FM271500 22008KT P6SM SCT050 BKN120
     FM280400 23005KT P6SM -SHRA SCT025 OVC040
     FM281000 29010G20KT P6SM BKN045=



000
FTUS41 KBGM 271100
TAFITH
TAF
KITH 271121Z 2712/2812 VRB03KT P6SM OVC025
      TEMPO 2712/2715 SCT025 OVC035
     FM271500 18010KT P6SM BKN045
     FM280300 19010KT P6SM -SHRA OVC025
     FM280900 28010G20KT P6SM SCT025 BKN035=



000
FTUS41 KBGM 271000 AAB
TAFELM
TAF AMD
KELM 271016Z 2710/2806 VRB03KT P6SM SCT035 BKN200
      TEMPO 2710/2714 BKN035
     FM271400 21008KT P6SM BKN050=



000
FTUS41 KBGM 271000 AAB
TAFBGM
TAF AMD
KBGM 271014Z 2710/2806 20005KT P6SM SCT025 BKN200
      TEMPO 2710/2714 OVC025
     FM271400 20010KT P6SM BKN045=



000
FTUS41 KBGM 270800 AAA
TAFITH
TAF AMD
KITH 270850Z 2709/2806 VRB03KT P6SM SCT025 OVC035
      TEMPO 2709/2713 OVC025
     FM271500 18010KT P6SM BKN045=



000
FTUS41 KBGM 270800 AAA
TAFBGM
TAF AMD
KBGM 270850Z 2709/2806 20005KT P6SM FEW025 BKN200
     FM271400 20010KT P6SM BKN045=



000
FTUS41 KBGM 270800 AAA
TAFELM
TAF AMD
KELM 270850Z 2709/2806 VRB03KT P6SM SCT040 BKN200
     FM271400 21008KT P6SM BKN050=



000
FTUS41 KBGM 270800 AAA
TAFSYR
TAF AMD
KSYR 270850Z 2709/2806 VRB03KT P6SM OVC040
      TEMPO 2710/2714 OVC025
     FM271600 19008KT P6SM BKN045
     FM280200 21012KT P6SM -SHRA SCT025 OVC035=



000
FTUS41 KBGM 270800 AAA
TAFAVP
TAF AMD
KAVP 270850Z 2709/2806 VRB03KT P6SM BKN200
     FM271500 22008KT P6SM SCT050 BKN120=



000
FTUS41 KBGM 270500
TAFELM
TAF
KELM 270520Z 2706/2806 VRB03KT P6SM BKN200
     FM271400 21008KT P6SM BKN050=



000
FTUS41 KBGM 270500
TAFBGM
TAF
KBGM 270520Z 2706/2806 20005KT P6SM BKN200
     FM271000 21005KT P6SM SCT025 BKN200
     FM271400 20010KT P6SM BKN045=



000
FTUS41 KBGM 270500
TAFITH
TAF
KITH 270520Z 2706/2806 VRB03KT P6SM BKN200
     FM270900 VRB03KT P6SM OVC025
      TEMPO 2711/2714 SCT025 BKN035
     FM271400 18010KT P6SM BKN045=



000
FTUS41 KBGM 270500
TAFSYR
TAF
KSYR 270520Z 2706/2806 VRB03KT P6SM BKN200
     FM270700 VRB03KT P6SM OVC025
      TEMPO 2707/2710 SCT025 BKN035
     FM271600 19008KT P6SM BKN045
     FM280200 21012KT P6SM -SHRA SCT025 OVC035=



000
FTUS41 KBGM 270500
TAFAVP
TAF
KAVP 270520Z 2706/2806 VRB03KT P6SM BKN200
     FM271500 22008KT P6SM SCT050 BKN120=



000
FTUS41 KBGM 262300
TAFELM
TAF
KELM 262340Z 2700/2724 VRB02KT P6SM FEW250
     FM271200 23004KT P6SM SCT035
     FM271800 22006KT P6SM FEW040 BKN080=



000
FTUS41 KBGM 262300
TAFAVP
TAF
KAVP 262340Z 2700/2724 VRB02KT P6SM FEW250
     FM271500 24005KT P6SM FEW040 SCT250=



000
FTUS41 KBGM 262300
TAFBGM
TAF
KBGM 262340Z 2700/2724 24005KT P6SM FEW250
     FM271200 22004KT P6SM SCT025
     FM271700 21007KT P6SM FEW035 BKN070=



000
FTUS41 KBGM 262300
TAFSYR
TAF
KSYR 262340Z 2700/2724 23005KT P6SM FEW200
     FM270900 24005KT P6SM BKN030
     FM271600 20007KT P6SM SCT035 BKN050=



000
FTUS41 KBGM 262300
TAFITH
TAF
KITH 262340Z 2700/2724 16004KT P6SM FEW250
     FM271000 14003KT P6SM SCT025
     FM271700 19008KT P6SM SCT035 BKN070=



000
FTUS41 KBGM 261700
TAFBGM
TAF
KBGM 261730Z 2618/2718 26008KT P6SM SCT035=



000
FTUS41 KBGM 261700
TAFELM
TAF
KELM 261730Z 2618/2718 24007KT P6SM SCT040
     FM262300 VRB03KT P6SM SCT050=



000
FTUS41 KBGM 261700
TAFAVP
TAF
KAVP 261730Z 2618/2718 26008KT P6SM SKC
     FM270000 VRB03KT P6SM SKC=



000
FTUS41 KBGM 261700
TAFSYR
TAF
KSYR 261730Z 2618/2718 28010KT P6SM SCT035
     FM270000 20005KT P6SM SCT040=



000
FTUS41 KBGM 261700
TAFITH
TAF
KITH 261730Z 2618/2718 26009KT P6SM SCT030
     FM262100 21005KT P6SM SCT040=



000
FTUS41 KBGM 261400 AAA
TAFBGM
TAF AMD
KBGM 261457Z 2615/2712 28007KT P6SM BKN025
      TEMPO 2615/2617 SCT025
     FM261700 26008KT P6SM SCT030 SCT150
     FM262200 22006KT P6SM SCT200=



000
FTUS41 KBGM 261100
TAFSYR
TAF
KSYR 261128Z 2612/2712 26010KT P6SM OVC035
      TEMPO 2615/2618 BKN035
     FM261800 23008KT P6SM SCT035 BKN150
     FM270600 20005KT P6SM OVC050=



000
FTUS41 KBGM 261100
TAFAVP
TAF
KAVP 261128Z 2612/2712 23006KT P6SM SKC
     FM261800 23005KT P6SM SKC=



000
FTUS41 KBGM 261100
TAFITH
TAF
KITH 261128Z 2612/2712 29009KT P6SM OVC030
      TEMPO 2613/2617 SCT030
     FM261700 26009KT P6SM SCT030 SCT150
     FM262100 21007KT P6SM SCT150
      TEMPO 2710/2712 BKN050=



000
FTUS41 KBGM 261100
TAFELM
TAF
KELM 261128Z 2612/2712 26007KT P6SM BKN035
      TEMPO 2612/2614 SCT035
     FM261400 24006KT P6SM SCT035 SCT150
     FM262100 21006KT P6SM SCT150
      TEMPO 2710/2712 BKN050=



000
FTUS41 KBGM 261100
TAFBGM
TAF
KBGM 261128Z 2612/2712 28007KT P6SM OVC025
      TEMPO 2613/2617 BKN025
     FM261700 26008KT P6SM SCT030 SCT150
     FM262200 22006KT P6SM SCT200=



000
FTUS41 KBGM 260800 AAA
TAFBGM
TAF AMD
KBGM 260847Z 2609/2706 29008KT P6SM BKN025
     FM261700 26008KT P6SM SCT030 SCT150
     FM262200 21006KT P6SM SCT150=



000
FTUS41 KBGM 260800 AAA
TAFSYR
TAF AMD
KSYR 260847Z 2609/2706 26010KT P6SM BKN035
     FM261800 24008KT P6SM SCT035 BKN150
     FM262200 19005KT P6SM BKN150=



000
FTUS41 KBGM 260800 AAB
TAFAVP
TAF AMD
KAVP 260847Z 2609/2706 24007KT P6SM SKC
     FM261800 24005KT P6SM SCT200=



000
FTUS41 KBGM 260800 AAA
TAFITH
TAF AMD
KITH 260847Z 2609/2706 29009KT P6SM BKN035
      TEMPO 2612/2616 SCT025
     FM261600 26009KT P6SM SCT030 SCT150
     FM262100 21007KT P6SM SCT150=



000
FTUS41 KBGM 260800 AAA
TAFELM
TAF AMD
KELM 260847Z 2609/2706 26007KT P6SM BKN035
      TEMPO 2610/2614 SCT035
     FM261400 24007KT P6SM SCT035 SCT150
     FM262100 21006KT P6SM SCT150=



000
FTUS41 KBGM 260700 AAA
TAFAVP
TAF AMD
KAVP 260712Z 2607/2706 24007KT P6SM SCT040 SCT200
     FM261800 24005KT P6SM SCT200=



000
FTUS41 KBGM 260500
TAFBGM
TAF
KBGM 260529Z 2606/2706 27008KT P6SM BKN025
     FM261700 26008KT P6SM SCT030 SCT150
     FM262200 21006KT P6SM SCT150=



000
FTUS41 KBGM 260500
TAFELM
TAF
KELM 260529Z 2606/2706 26007KT P6SM BKN035
      TEMPO 2608/2612 BKN030
     FM261600 24007KT P6SM SCT035 SCT150
     FM262100 21006KT P6SM SCT150=



000
FTUS41 KBGM 260500
TAFITH
TAF
KITH 260529Z 2606/2706 27009KT P6SM BKN025
      TEMPO 2612/2616 SCT025
     FM261600 26009KT P6SM SCT030 SCT150
     FM262100 21007KT P6SM SCT150=



000
FTUS41 KBGM 260500
TAFAVP
TAF
KAVP 260529Z 2606/2706 24007KT P6SM SCT040
      TEMPO 2606/2610 BKN040
     FM261000 24007KT P6SM SCT040 SCT200
     FM261800 24005KT P6SM SCT200=



000
FTUS41 KBGM 260500
TAFSYR
TAF
KSYR 260529Z 2606/2706 26010KT P6SM BKN035
      TEMPO 2607/2611 BKN030
     FM261800 24008KT P6SM SCT035 BKN150
     FM262200 19005KT P6SM BKN150=



000
FTUS41 KBGM 260300 AAA
TAFAVP
TAF AMD
KAVP 260311Z 2603/2624 26010KT P6SM BKN035
      TEMPO 2608/2612 OVC030
     FM261200 25007KT P6SM SCT030 SCT200=



000
FTUS41 KBGM 260200 AAA
TAFBGM
TAF AMD
KBGM 260220Z 2602/2624 28010G18KT P6SM BKN035
      TEMPO 2602/2604 BKN025
     FM260400 27008KT P6SM BKN020
     FM261600 24008KT P6SM FEW030 SCT150=



000
FTUS41 KBGM 260200 AAA
TAFSYR
TAF AMD
KSYR 260219Z 2602/2624 27012KT P6SM OVC035
     FM260600 26010KT P6SM BKN030
     FM261600 26010KT P6SM SCT035 BKN150=



000
FTUS41 KBGM 252300
TAFELM
TAF
KELM 252340Z 2600/2624 27010KT P6SM BKN035
     FM260700 26005KT P6SM BKN030
     FM261400 24008KT P6SM FEW035 SCT150=



000
FTUS41 KBGM 252300
TAFBGM
TAF
KBGM 252340Z 2600/2624 28008G14KT P6SM BKN035
      TEMPO 2603/2606 BKN025
     FM260600 27007KT P6SM BKN020
     FM261600 24008KT P6SM FEW030 SCT150=



000
FTUS41 KBGM 252300
TAFSYR
TAF
KSYR 252340Z 2600/2624 26012KT P6SM BKN030
     FM261600 26010KT P6SM SCT035 BKN150=



000
FTUS41 KBGM 252300
TAFAVP
TAF
KAVP 252340Z 2600/2624 28012KT P6SM BKN040
     FM260300 27005KT P6SM FEW030
      TEMPO 2608/2612 OVC030
     FM261200 25007KT P6SM SCT030 SCT200=



000
FTUS41 KBGM 252300
TAFITH
TAF
KITH 252340Z 2600/2624 28012KT P6SM BKN025
      TEMPO 2610/2614 SCT025
     FM261400 23010KT P6SM SCT030 BKN200=



000
FTUS41 KBGM 252000 AAA
TAFSYR
TAF AMD
KSYR 252047Z 2521/2618 26018G28KT P6SM BKN040
     FM260000 26014KT P6SM BKN040
     FM260900 26010KT P6SM SCT035 BKN120=



000
FTUS41 KBGM 252000 AAA
TAFBGM
TAF AMD
KBGM 252045Z 2521/2618 27015G23KT P6SM BKN040
     FM260000 28011KT P6SM BKN040
     FM260600 27008KT P6SM SCT035 SCT200=



000
FTUS41 KBGM 252000 AAA
TAFAVP
TAF AMD
KAVP 252043Z 2521/2618 26013G20KT P6SM BKN050
     FM252200 27013KT P6SM BKN050
     FM260200 27005KT P6SM SCT200=



000
FTUS41 KBGM 251700 RRA
TAFELM
TAF
KELM 251742Z 2518/2618 26013G25KT P6SM BKN040
     FM260000 27010KT P6SM BKN050
     FM260600 26005KT P6SM SCT200=



000
FTUS41 KBGM 251700 RRA
TAFBGM
TAF
KBGM 251742Z 2518/2618 27015G23KT P6SM BKN030
     FM260000 28011KT P6SM BKN035
     FM260600 27008KT P6SM SCT035 SCT200=



000
FTUS41 KBGM 251700 RRA
TAFAVP
TAF
KAVP 251742Z 2518/2618 26013G23KT P6SM BKN050
     FM252200 27013KT P6SM SCT040
     FM260100 28010KT P6SM SCT200
     FM260600 27005KT P6SM SCT200=



000
FTUS41 KBGM 251700 RRA
TAFITH
TAF
KITH 251742Z 2518/2618 26013G23KT P6SM BKN030
     FM260000 27012KT P6SM BKN030
     FM260600 26010KT P6SM SCT030 BKN200=



000
FTUS41 KBGM 251700 RRA
TAFSYR
TAF
KSYR 251742Z 2518/2618 26018G28KT P6SM BKN030
     FM260000 26014KT P6SM BKN030
     FM260900 26010KT P6SM SCT035 BKN120=



000
FTUS41 KBGM 251500 AAA
TAFAVP
TAF AMD
KAVP 251557Z 2516/2612 26013G23KT P6SM BKN050
     FM252100 27013KT P6SM SCT040
     FM260100 28010KT P6SM SCT200
     FM260600 27005KT P6SM SCT200=



000
FTUS41 KBGM 251500 AAA
TAFITH
TAF AMD
KITH 251555Z 2516/2612 26013G25KT P6SM BKN030
     FM252000 27012G20KT P6SM BKN035
     FM260100 27012KT P6SM SCT035 BKN150
     FM260600 26010KT P6SM BKN200=



    US Dept of Commerce
    National Oceanic and Atmospheric Administration
    National Weather Service
    1325 East West Highway
    Silver Spring, MD 20910
    Page Author: NWS Internet Services Team
Disclaimer
Information Quality
Credits
Glossary
Privacy Policy
Freedom of Information Act (FOIA)
About Us
Career Opportunities